This is the latest recevied weather packets stored in our database for station/object OE-11372. If no packets are shown the sender has not sent any weather packets the latest 10 day(s).
| Time | Temp. | Humidity | Pressure | Rain* | Wind** | Luminosity | Snow |
|---|---|---|---|---|---|---|---|
| 1787605876 | 16.67° C | 79% | 853.2 hPa | 0.51 mm | - | 0 W/m² | - |
| 1787605503 | 17.78° C | 74% | 853 hPa | 0.51 mm | - | 0 W/m² | - |
| 1787604903 | 18.89° C | 65% | 853.1 hPa | 0 mm | - | 0 W/m² | - |
| 1787604076 | 20° C | 57% | 852.9 hPa | 0 mm | - | 0 W/m² | - |
| 1787603702 | 20.56° C | 51% | 852.8 hPa | 0 mm | - | 0 W/m² | - |
| 1787603103 | 20.56° C | 52% | 852.8 hPa | 0 mm | - | 0 W/m² | - |
| 1787602515 | 20.56° C | 52% | 852.8 hPa | 0 mm | - | 0 W/m² | - |
| 1787601903 | 20.56° C | 52% | 852.8 hPa | 0 mm | - | 0 W/m² | - |
| 1787601303 | 20.56° C | 54% | 852.5 hPa | 0 mm | - | 0 W/m² | - |
| 1787600476 | 20° C | 55% | 852.5 hPa | 0 mm | - | 0 W/m² | - |
| 1787600103 | 20° C | 57% | 852.4 hPa | 0 mm | - | 0 W/m² | - |
| 1787599502 | 19.44° C | 58% | 852.4 hPa | 0 mm | - | 0 W/m² | - |
| 1787598676 | 19.44° C | 60% | 852.4 hPa | 0 mm | - | 0 W/m² | - |
| 1787598302 | 18.33° C | 64% | 852.1 hPa | 0 mm | - | 0 W/m² | - |
| 1787597702 | 18.33° C | 65% | 852.1 hPa | 0 mm | - | 0 W/m² | - |
| 1787596876 | 18.33° C | 66% | 852 hPa | 0 mm | - | 0 W/m² | - |
| 1787596502 | 17.78° C | 69% | 852 hPa | 0 mm | - | 0 W/m² | - |
| 1787595903 | 17.78° C | 70% | 852 hPa | 0 mm | - | 0 W/m² | - |
| 1787595076 | 17.78° C | 69% | 851.8 hPa | 0 mm | - | 8 W/m² | - |
| 1787594703 | 17.78° C | 72% | 851.9 hPa | 0 mm | - | 8 W/m² | - |
| 1787594103 | 18.33° C | 71% | 851.8 hPa | 0 mm | - | 25 W/m² | - |
| 1787593276 | 18.33° C | 71% | 852 hPa | 0 mm | - | 33 W/m² | - |
| 1787592902 | 18.33° C | 71% | 852.1 hPa | 0 mm | - | 33 W/m² | - |
| 1787592303 | 18.89° C | 71% | 852 hPa | 0 mm | - | 33 W/m² | - |
| 1787591476 | 18.89° C | 72% | 852.1 hPa | 0 mm | - | 33 W/m² | - |
* Rain latest hour (hover to see other rain measurements)
** Current wind speed in m/s (hover to see current wind gust speed)